sensor_id;sensor_type;location;lat;lon;timestamp;temperature;humidity
20594;DHT22;10455;48.732;10.266;2024-01-25T00:01:24;8.00;99.90
20594;DHT22;10455;48.732;10.266;2024-01-25T00:06:26;8.10;99.90
20594;DHT22;10455;48.732;10.266;2024-01-25T00:11:29;7.90;99.90
20594;DHT22;10455;48.732;10.266;2024-01-25T00:16:32;7.80;99.90
20594;DHT22;10455;48.732;10.266;2024-01-25T00:21:34;7.80;99.90
20594;DHT22;10455;48.732;10.266;2024-01-25T00:26:38;7.70;99.90
20594;DHT22;10455;48.732;10.266;2024-01-25T00:31:41;7.60;99.90
20594;DHT22;10455;48.732;10.266;2024-01-25T00:36:43;7.80;99.90
20594;DHT22;10455;48.732;10.266;2024-01-25T00:41:50;7.90;99.90
20594;DHT22;10455;48.732;10.266;2024-01-25T00:46:53;8.00;99.90
20594;DHT22;10455;48.732;10.266;2024-01-25T00:51:58;7.90;99.90
20594;DHT22;10455;48.732;10.266;2024-01-25T00:57:02;7.90;99.90
20594;DHT22;10455;48.732;10.266;2024-01-25T01:02:05;7.90;99.90
20594;DHT22;10455;48.732;10.266;2024-01-25T01:07:11;7.70;99.90
20594;DHT22;10455;48.732;10.266;2024-01-25T01:12:14;7.90;99.90
20594;DHT22;10455;48.732;10.266;2024-01-25T01:17:17;8.00;99.90
20594;DHT22;10455;48.732;10.266;2024-01-25T01:22:19;7.90;99.90
20594;DHT22;10455;48.732;10.266;2024-01-25T01:27:22;7.90;99.90
20594;DHT22;10455;48.732;10.266;2024-01-25T01:32:24;7.90;99.90
20594;DHT22;10455;48.732;10.266;2024-01-25T01:37:26;7.90;99.90
20594;DHT22;10455;48.732;10.266;2024-01-25T01:42:31;8.10;99.90
20594;DHT22;10455;48.732;10.266;2024-01-25T01:47:33;8.00;99.90
20594;DHT22;10455;48.732;10.266;2024-01-25T01:52:35;8.00;99.90
20594;DHT22;10455;48.732;10.266;2024-01-25T01:57:39;8.20;99.90
20594;DHT22;10455;48.732;10.266;2024-01-25T02:02:41;8.10;99.90
20594;DHT22;10455;48.732;10.266;2024-01-25T02:07:43;8.00;99.90
20594;DHT22;10455;48.732;10.266;2024-01-25T02:12:47;7.90;99.90
20594;DHT22;10455;48.732;10.266;2024-01-25T02:17:49;7.80;99.90
20594;DHT22;10455;48.732;10.266;2024-01-25T02:22:52;7.90;99.90
20594;DHT22;10455;48.732;10.266;2024-01-25T02:27:54;7.80;99.90
20594;DHT22;10455;48.732;10.266;2024-01-25T02:32:56;7.90;99.90
20594;DHT22;10455;48.732;10.266;2024-01-25T02:38:00;7.80;99.90
20594;DHT22;10455;48.732;10.266;2024-01-25T02:43:01;7.80;99.90
20594;DHT22;10455;48.732;10.266;2024-01-25T02:48:04;7.70;99.90
20594;DHT22;10455;48.732;10.266;2024-01-25T02:53:07;7.70;99.90
20594;DHT22;10455;48.732;10.266;2024-01-25T02:58:09;7.70;99.90
20594;DHT22;10455;48.732;10.266;2024-01-25T03:03:11;7.50;99.90
20594;DHT22;10455;48.732;10.266;2024-01-25T03:08:14;7.40;99.90
20594;DHT22;10455;48.732;10.266;2024-01-25T03:13:16;7.40;99.90
20594;DHT22;10455;48.732;10.266;2024-01-25T03:18:18;7.40;99.90
20594;DHT22;10455;48.732;10.266;2024-01-25T03:23:21;7.40;99.90
20594;DHT22;10455;48.732;10.266;2024-01-25T03:28:23;7.40;99.90
20594;DHT22;10455;48.732;10.266;2024-01-25T03:33:25;7.40;99.90
20594;DHT22;10455;48.732;10.266;2024-01-25T03:38:30;7.40;99.90
20594;DHT22;10455;48.732;10.266;2024-01-25T03:43:32;7.40;99.90
20594;DHT22;10455;48.732;10.266;2024-01-25T03:48:34;7.30;99.90
20594;DHT22;10455;48.732;10.266;2024-01-25T03:53:37;7.40;99.90
20594;DHT22;10455;48.732;10.266;2024-01-25T03:58:39;7.30;99.90
20594;DHT22;10455;48.732;10.266;2024-01-25T04:03:41;7.30;99.90
20594;DHT22;10455;48.732;10.266;2024-01-25T04:08:44;7.50;99.90
20594;DHT22;10455;48.732;10.266;2024-01-25T04:13:46;7.40;99.90
20594;DHT22;10455;48.732;10.266;2024-01-25T04:18:48;7.50;99.90
20594;DHT22;10455;48.732;10.266;2024-01-25T04:23:51;7.50;99.90
20594;DHT22;10455;48.732;10.266;2024-01-25T04:28:53;7.30;99.90
20594;DHT22;10455;48.732;10.266;2024-01-25T04:33:55;7.10;99.90
20594;DHT22;10455;48.732;10.266;2024-01-25T04:38:58;6.90;99.90
20594;DHT22;10455;48.732;10.266;2024-01-25T04:44:00;7.00;99.90
20594;DHT22;10455;48.732;10.266;2024-01-25T04:49:02;7.10;99.90
20594;DHT22;10455;48.732;10.266;2024-01-25T04:54:05;6.90;99.90
20594;DHT22;10455;48.732;10.266;2024-01-25T04:59:09;6.60;99.90
20594;DHT22;10455;48.732;10.266;2024-01-25T05:04:11;6.40;99.90
20594;DHT22;10455;48.732;10.266;2024-01-25T05:09:14;6.30;99.90
20594;DHT22;10455;48.732;10.266;2024-01-25T05:14:16;6.30;99.90
20594;DHT22;10455;48.732;10.266;2024-01-25T05:19:18;6.10;99.90
20594;DHT22;10455;48.732;10.266;2024-01-25T05:24:21;6.20;99.90
20594;DHT22;10455;48.732;10.266;2024-01-25T05:29:23;6.40;99.90
20594;DHT22;10455;48.732;10.266;2024-01-25T05:34:25;6.50;99.90
20594;DHT22;10455;48.732;10.266;2024-01-25T05:39:28;6.40;99.90
20594;DHT22;10455;48.732;10.266;2024-01-25T05:44:30;6.50;99.90
20594;DHT22;10455;48.732;10.266;2024-01-25T05:49:32;6.50;99.90
20594;DHT22;10455;48.732;10.266;2024-01-25T05:54:35;6.50;99.90
20594;DHT22;10455;48.732;10.266;2024-01-25T05:59:37;6.40;99.90
20594;DHT22;10455;48.732;10.266;2024-01-25T06:04:39;6.50;99.90
20594;DHT22;10455;48.732;10.266;2024-01-25T06:09:42;6.70;99.90
20594;DHT22;10455;48.732;10.266;2024-01-25T06:14:44;6.90;99.90
20594;DHT22;10455;48.732;10.266;2024-01-25T06:19:46;6.90;99.90
20594;DHT22;10455;48.732;10.266;2024-01-25T06:24:49;6.60;99.90
20594;DHT22;10455;48.732;10.266;2024-01-25T06:29:51;6.20;99.90
20594;DHT22;10455;48.732;10.266;2024-01-25T06:34:53;6.30;99.90
20594;DHT22;10455;48.732;10.266;2024-01-25T06:39:56;6.20;99.90
20594;DHT22;10455;48.732;10.266;2024-01-25T06:44:58;5.90;99.90
20594;DHT22;10455;48.732;10.266;2024-01-25T06:50:00;5.70;99.90
20594;DHT22;10455;48.732;10.266;2024-01-25T06:55:04;5.70;99.90
20594;DHT22;10455;48.732;10.266;2024-01-25T07:00:07;5.70;99.90
20594;DHT22;10455;48.732;10.266;2024-01-25T07:05:11;5.90;99.90
20594;DHT22;10455;48.732;10.266;2024-01-25T07:10:15;6.00;99.90
20594;DHT22;10455;48.732;10.266;2024-01-25T07:15:17;6.30;99.90
20594;DHT22;10455;48.732;10.266;2024-01-25T07:20:19;6.50;99.90
20594;DHT22;10455;48.732;10.266;2024-01-25T07:25:22;6.80;99.90
20594;DHT22;10455;48.732;10.266;2024-01-25T07:30:24;7.00;99.90
20594;DHT22;10455;48.732;10.266;2024-01-25T07:35:26;6.70;99.90
20594;DHT22;10455;48.732;10.266;2024-01-25T07:40:29;6.60;99.90
20594;DHT22;10455;48.732;10.266;2024-01-25T07:45:31;7.00;99.90
20594;DHT22;10455;48.732;10.266;2024-01-25T07:50:33;7.20;99.90
20594;DHT22;10455;48.732;10.266;2024-01-25T07:55:36;7.20;99.90
20594;DHT22;10455;48.732;10.266;2024-01-25T08:00:41;7.50;99.90
20594;DHT22;10455;48.732;10.266;2024-01-25T08:05:43;7.50;99.90
20594;DHT22;10455;48.732;10.266;2024-01-25T08:10:47;7.60;99.90
20594;DHT22;10455;48.732;10.266;2024-01-25T08:15:49;7.50;99.90
20594;DHT22;10455;48.732;10.266;2024-01-25T08:20:51;7.60;99.90
20594;DHT22;10455;48.732;10.266;2024-01-25T08:25:54;7.40;99.90
20594;DHT22;10455;48.732;10.266;2024-01-25T08:30:56;7.20;99.90
20594;DHT22;10455;48.732;10.266;2024-01-25T08:35:58;7.00;99.90
20594;DHT22;10455;48.732;10.266;2024-01-25T08:41:01;6.80;99.90
20594;DHT22;10455;48.732;10.266;2024-01-25T08:46:03;7.00;99.90
20594;DHT22;10455;48.732;10.266;2024-01-25T08:51:05;7.60;99.90
20594;DHT22;10455;48.732;10.266;2024-01-25T08:56:08;7.90;99.90
20594;DHT22;10455;48.732;10.266;2024-01-25T09:01:10;8.00;99.90
20594;DHT22;10455;48.732;10.266;2024-01-25T09:06:12;8.00;99.90
20594;DHT22;10455;48.732;10.266;2024-01-25T09:11:17;8.20;99.90
20594;DHT22;10455;48.732;10.266;2024-01-25T09:16:20;8.30;99.90
20594;DHT22;10455;48.732;10.266;2024-01-25T09:21:22;8.60;99.90
20594;DHT22;10455;48.732;10.266;2024-01-25T09:26:26;9.20;99.90
20594;DHT22;10455;48.732;10.266;2024-01-25T09:31:28;9.30;99.90
20594;DHT22;10455;48.732;10.266;2024-01-25T09:36:29;10.10;99.90
20594;DHT22;10455;48.732;10.266;2024-01-25T09:41:33;10.60;99.90
20594;DHT22;10455;48.732;10.266;2024-01-25T09:46:35;10.50;99.90
20594;DHT22;10455;48.732;10.266;2024-01-25T09:51:40;10.00;99.90
20594;DHT22;10455;48.732;10.266;2024-01-25T09:56:44;10.80;99.90
20594;DHT22;10455;48.732;10.266;2024-01-25T10:01:46;11.30;99.90
20594;DHT22;10455;48.732;10.266;2024-01-25T10:06:50;11.10;99.90
20594;DHT22;10455;48.732;10.266;2024-01-25T10:11:53;13.00;99.90
20594;DHT22;10455;48.732;10.266;2024-01-25T10:16:55;15.80;99.90
20594;DHT22;10455;48.732;10.266;2024-01-25T10:21:58;16.30;99.90
20594;DHT22;10455;48.732;10.266;2024-01-25T10:27:01;17.00;99.90
20594;DHT22;10455;48.732;10.266;2024-01-25T10:32:04;16.40;99.90
20594;DHT22;10455;48.732;10.266;2024-01-25T10:37:06;17.30;99.90
20594;DHT22;10455;48.732;10.266;2024-01-25T10:42:10;15.00;99.90
20594;DHT22;10455;48.732;10.266;2024-01-25T10:47:12;15.80;99.90
20594;DHT22;10455;48.732;10.266;2024-01-25T10:52:15;17.30;99.90
20594;DHT22;10455;48.732;10.266;2024-01-25T10:57:18;16.80;99.90
20594;DHT22;10455;48.732;10.266;2024-01-25T11:02:20;16.50;99.90
20594;DHT22;10455;48.732;10.266;2024-01-25T11:07:22;15.90;99.90
20594;DHT22;10455;48.732;10.266;2024-01-25T11:12:25;14.40;99.90
20594;DHT22;10455;48.732;10.266;2024-01-25T11:17:31;15.50;99.90
20594;DHT22;10455;48.732;10.266;2024-01-25T11:22:34;15.80;99.90
20594;DHT22;10455;48.732;10.266;2024-01-25T11:27:38;15.60;99.90
20594;DHT22;10455;48.732;10.266;2024-01-25T11:32:40;15.90;99.90
20594;DHT22;10455;48.732;10.266;2024-01-25T11:37:43;16.00;99.90
20594;DHT22;10455;48.732;10.266;2024-01-25T11:42:48;16.00;99.90
20594;DHT22;10455;48.732;10.266;2024-01-25T11:47:51;14.80;99.90
20594;DHT22;10455;48.732;10.266;2024-01-25T11:52:53;14.30;99.90
20594;DHT22;10455;48.732;10.266;2024-01-25T11:57:56;13.50;99.90
20594;DHT22;10455;48.732;10.266;2024-01-25T12:02:58;13.80;99.90
20594;DHT22;10455;48.732;10.266;2024-01-25T12:08:00;13.90;99.90
20594;DHT22;10455;48.732;10.266;2024-01-25T12:13:06;13.70;99.90
20594;DHT22;10455;48.732;10.266;2024-01-25T12:18:08;13.40;99.90
20594;DHT22;10455;48.732;10.266;2024-01-25T12:23:10;13.80;99.90
20594;DHT22;10455;48.732;10.266;2024-01-25T12:28:15;13.10;99.90
20594;DHT22;10455;48.732;10.266;2024-01-25T12:33:17;13.10;99.90
20594;DHT22;10455;48.732;10.266;2024-01-25T12:38:19;13.20;99.90
20594;DHT22;10455;48.732;10.266;2024-01-25T12:43:22;14.10;99.90
20594;DHT22;10455;48.732;10.266;2024-01-25T12:48:24;14.70;99.90
20594;DHT22;10455;48.732;10.266;2024-01-25T12:53:26;14.90;99.90
20594;DHT22;10455;48.732;10.266;2024-01-25T12:58:29;14.20;99.90
20594;DHT22;10455;48.732;10.266;2024-01-25T13:03:31;13.60;99.90
20594;DHT22;10455;48.732;10.266;2024-01-25T13:08:33;12.90;99.90
20594;DHT22;10455;48.732;10.266;2024-01-25T13:13:36;12.40;99.90
20594;DHT22;10455;48.732;10.266;2024-01-25T13:18:38;12.40;99.90
20594;DHT22;10455;48.732;10.266;2024-01-25T13:23:40;12.50;99.90
20594;DHT22;10455;48.732;10.266;2024-01-25T13:28:43;11.90;99.90
20594;DHT22;10455;48.732;10.266;2024-01-25T13:33:45;11.40;99.90
20594;DHT22;10455;48.732;10.266;2024-01-25T13:38:47;11.30;99.90
20594;DHT22;10455;48.732;10.266;2024-01-25T13:43:51;11.00;99.90
20594;DHT22;10455;48.732;10.266;2024-01-25T13:48:52;11.20;99.90
20594;DHT22;10455;48.732;10.266;2024-01-25T13:53:54;11.80;99.90
20594;DHT22;10455;48.732;10.266;2024-01-25T13:58:57;12.70;99.90
20594;DHT22;10455;48.732;10.266;2024-01-25T14:03:59;13.20;99.90
20594;DHT22;10455;48.732;10.266;2024-01-25T14:09:01;12.80;99.90
20594;DHT22;10455;48.732;10.266;2024-01-25T14:14:04;13.00;99.90
20594;DHT22;10455;48.732;10.266;2024-01-25T14:19:06;12.50;99.90
20594;DHT22;10455;48.732;10.266;2024-01-25T14:24:08;13.10;99.90
20594;DHT22;10455;48.732;10.266;2024-01-25T14:29:12;13.60;99.90
20594;DHT22;10455;48.732;10.266;2024-01-25T14:34:14;14.60;99.90
20594;DHT22;10455;48.732;10.266;2024-01-25T14:39:16;14.70;99.90
20594;DHT22;10455;48.732;10.266;2024-01-25T14:44:20;14.20;99.90
20594;DHT22;10455;48.732;10.266;2024-01-25T14:49:22;13.60;99.90
20594;DHT22;10455;48.732;10.266;2024-01-25T14:54:25;12.80;99.90
20594;DHT22;10455;48.732;10.266;2024-01-25T14:59:28;12.30;99.90
20594;DHT22;10455;48.732;10.266;2024-01-25T15:04:30;12.40;99.90
20594;DHT22;10455;48.732;10.266;2024-01-25T15:09:32;12.10;99.90
20594;DHT22;10455;48.732;10.266;2024-01-25T15:14:35;11.30;99.90
20594;DHT22;10455;48.732;10.266;2024-01-25T15:19:37;10.80;99.90
20594;DHT22;10455;48.732;10.266;2024-01-25T15:24:39;10.60;99.90
20594;DHT22;10455;48.732;10.266;2024-01-25T15:29:42;10.20;99.90
20594;DHT22;10455;48.732;10.266;2024-01-25T15:34:44;9.70;99.90
20594;DHT22;10455;48.732;10.266;2024-01-25T15:39:47;9.40;99.90
20594;DHT22;10455;48.732;10.266;2024-01-25T15:44:50;9.10;99.90
20594;DHT22;10455;48.732;10.266;2024-01-25T15:49:52;9.00;99.90
20594;DHT22;10455;48.732;10.266;2024-01-25T15:54:54;8.70;99.90
20594;DHT22;10455;48.732;10.266;2024-01-25T15:59:58;8.40;99.90
20594;DHT22;10455;48.732;10.266;2024-01-25T16:05:00;8.20;99.90
20594;DHT22;10455;48.732;10.266;2024-01-25T16:10:02;7.90;99.90
20594;DHT22;10455;48.732;10.266;2024-01-25T16:15:06;7.70;99.90
20594;DHT22;10455;48.732;10.266;2024-01-25T16:20:09;7.60;99.90
20594;DHT22;10455;48.732;10.266;2024-01-25T16:25:11;7.40;99.90
20594;DHT22;10455;48.732;10.266;2024-01-25T16:30:15;7.20;99.90
20594;DHT22;10455;48.732;10.266;2024-01-25T16:35:17;7.00;99.90
20594;DHT22;10455;48.732;10.266;2024-01-25T16:40:19;6.90;99.90
20594;DHT22;10455;48.732;10.266;2024-01-25T16:45:22;6.70;99.90
20594;DHT22;10455;48.732;10.266;2024-01-25T16:50:24;6.60;99.90
20594;DHT22;10455;48.732;10.266;2024-01-25T16:55:26;6.50;99.90
20594;DHT22;10455;48.732;10.266;2024-01-25T17:00:29;6.40;99.90
20594;DHT22;10455;48.732;10.266;2024-01-25T17:05:31;6.30;99.90
20594;DHT22;10455;48.732;10.266;2024-01-25T17:10:33;6.10;99.90
20594;DHT22;10455;48.732;10.266;2024-01-25T17:15:36;5.80;99.90
20594;DHT22;10455;48.732;10.266;2024-01-25T17:20:39;5.70;99.90
20594;DHT22;10455;48.732;10.266;2024-01-25T17:25:41;5.50;99.90
20594;DHT22;10455;48.732;10.266;2024-01-25T17:30:44;5.50;99.90
20594;DHT22;10455;48.732;10.266;2024-01-25T17:35:46;5.50;99.90
20594;DHT22;10455;48.732;10.266;2024-01-25T17:40:48;5.40;99.90
20594;DHT22;10455;48.732;10.266;2024-01-25T17:45:52;5.30;99.90
20594;DHT22;10455;48.732;10.266;2024-01-25T17:50:53;5.30;99.90
20594;DHT22;10455;48.732;10.266;2024-01-25T17:55:56;5.40;99.90
20594;DHT22;10455;48.732;10.266;2024-01-25T18:00:59;5.60;99.90
20594;DHT22;10455;48.732;10.266;2024-01-25T18:06:01;5.70;99.90
20594;DHT22;10455;48.732;10.266;2024-01-25T18:11:03;5.80;99.90
20594;DHT22;10455;48.732;10.266;2024-01-25T18:16:06;6.00;99.90
20594;DHT22;10455;48.732;10.266;2024-01-25T18:21:08;6.10;99.90
20594;DHT22;10455;48.732;10.266;2024-01-25T18:26:10;6.00;99.90
20594;DHT22;10455;48.732;10.266;2024-01-25T18:31:13;6.00;99.90
20594;DHT22;10455;48.732;10.266;2024-01-25T18:36:15;5.90;99.90
20594;DHT22;10455;48.732;10.266;2024-01-25T18:41:17;6.00;99.90
20594;DHT22;10455;48.732;10.266;2024-01-25T18:46:20;6.10;99.90
20594;DHT22;10455;48.732;10.266;2024-01-25T18:51:22;6.20;99.90
20594;DHT22;10455;48.732;10.266;2024-01-25T18:56:24;6.30;99.90
20594;DHT22;10455;48.732;10.266;2024-01-25T19:01:29;6.50;99.90
20594;DHT22;10455;48.732;10.266;2024-01-25T19:06:33;6.50;99.90
20594;DHT22;10455;48.732;10.266;2024-01-25T19:11:35;6.70;99.90
20594;DHT22;10455;48.732;10.266;2024-01-25T19:16:38;6.80;99.90
20594;DHT22;10455;48.732;10.266;2024-01-25T19:21:40;6.90;99.90
20594;DHT22;10455;48.732;10.266;2024-01-25T19:26:42;7.10;99.90
20594;DHT22;10455;48.732;10.266;2024-01-25T19:31:47;7.20;99.90
20594;DHT22;10455;48.732;10.266;2024-01-25T19:36:49;7.10;99.90
20594;DHT22;10455;48.732;10.266;2024-01-25T19:41:51;7.20;99.90
20594;DHT22;10455;48.732;10.266;2024-01-25T19:46:54;7.20;99.90
20594;DHT22;10455;48.732;10.266;2024-01-25T19:51:56;7.20;99.90
20594;DHT22;10455;48.732;10.266;2024-01-25T19:56:58;7.20;99.90
20594;DHT22;10455;48.732;10.266;2024-01-25T20:02:02;7.10;99.90
20594;DHT22;10455;48.732;10.266;2024-01-25T20:07:05;7.10;99.90
20594;DHT22;10455;48.732;10.266;2024-01-25T20:12:08;7.00;99.90
20594;DHT22;10455;48.732;10.266;2024-01-25T20:17:11;7.00;99.90
20594;DHT22;10455;48.732;10.266;2024-01-25T20:22:13;7.10;99.90
20594;DHT22;10455;48.732;10.266;2024-01-25T20:27:15;7.00;99.90
20594;DHT22;10455;48.732;10.266;2024-01-25T20:32:18;7.00;99.90
20594;DHT22;10455;48.732;10.266;2024-01-25T20:37:22;7.10;99.90
20594;DHT22;10455;48.732;10.266;2024-01-25T20:42:25;7.10;99.90
20594;DHT22;10455;48.732;10.266;2024-01-25T20:47:28;7.30;99.90
20594;DHT22;10455;48.732;10.266;2024-01-25T20:52:30;7.10;99.90
20594;DHT22;10455;48.732;10.266;2024-01-25T20:57:32;6.90;99.90
20594;DHT22;10455;48.732;10.266;2024-01-25T21:02:35;6.90;99.90
20594;DHT22;10455;48.732;10.266;2024-01-25T21:07:38;6.80;99.90
20594;DHT22;10455;48.732;10.266;2024-01-25T21:12:40;6.70;99.90
20594;DHT22;10455;48.732;10.266;2024-01-25T21:17:44;6.80;99.90
20594;DHT22;10455;48.732;10.266;2024-01-25T21:22:45;7.00;99.90
20594;DHT22;10455;48.732;10.266;2024-01-25T21:27:47;7.20;99.90
20594;DHT22;10455;48.732;10.266;2024-01-25T21:32:51;7.30;99.90
20594;DHT22;10455;48.732;10.266;2024-01-25T21:37:52;7.10;99.90
20594;DHT22;10455;48.732;10.266;2024-01-25T21:42:54;7.00;99.90
20594;DHT22;10455;48.732;10.266;2024-01-25T21:47:58;7.00;99.90
20594;DHT22;10455;48.732;10.266;2024-01-25T21:53:00;7.20;99.90
20594;DHT22;10455;48.732;10.266;2024-01-25T21:58:02;7.50;99.90
20594;DHT22;10455;48.732;10.266;2024-01-25T22:03:05;7.70;99.90
20594;DHT22;10455;48.732;10.266;2024-01-25T22:08:07;7.90;99.90
20594;DHT22;10455;48.732;10.266;2024-01-25T22:13:09;7.90;99.90
20594;DHT22;10455;48.732;10.266;2024-01-25T22:18:12;7.90;99.90
20594;DHT22;10455;48.732;10.266;2024-01-25T22:23:14;8.30;99.90
20594;DHT22;10455;48.732;10.266;2024-01-25T22:28:16;8.30;99.90
20594;DHT22;10455;48.732;10.266;2024-01-25T22:33:19;8.40;99.90
20594;DHT22;10455;48.732;10.266;2024-01-25T22:38:21;8.50;99.90
20594;DHT22;10455;48.732;10.266;2024-01-25T22:43:23;8.50;99.90
20594;DHT22;10455;48.732;10.266;2024-01-25T22:48:27;8.60;99.90
20594;DHT22;10455;48.732;10.266;2024-01-25T22:53:29;8.70;99.90
20594;DHT22;10455;48.732;10.266;2024-01-25T22:58:31;8.60;99.90
20594;DHT22;10455;48.732;10.266;2024-01-25T23:03:34;8.50;99.90
20594;DHT22;10455;48.732;10.266;2024-01-25T23:08:36;8.70;99.90
20594;DHT22;10455;48.732;10.266;2024-01-25T23:13:38;8.60;99.90
20594;DHT22;10455;48.732;10.266;2024-01-25T23:18:41;8.20;99.90
20594;DHT22;10455;48.732;10.266;2024-01-25T23:23:43;8.10;99.90
20594;DHT22;10455;48.732;10.266;2024-01-25T23:28:45;8.00;99.90
20594;DHT22;10455;48.732;10.266;2024-01-25T23:33:48;7.80;99.90
20594;DHT22;10455;48.732;10.266;2024-01-25T23:38:50;7.80;99.90
20594;DHT22;10455;48.732;10.266;2024-01-25T23:43:52;7.90;99.90
20594;DHT22;10455;48.732;10.266;2024-01-25T23:48:55;7.90;99.90
20594;DHT22;10455;48.732;10.266;2024-01-25T23:53:57;8.00;99.90
20594;DHT22;10455;48.732;10.266;2024-01-25T23:58:59;8.10;99.90
